sensor_id;sensor_type;location;lat;lon;timestamp;temperature;humidity
10692;DHT22;5396;50.950;6.988;2022-08-21T00:01:11;18.00;99.90
10692;DHT22;5396;50.950;6.988;2022-08-21T00:03:38;18.00;99.90
10692;DHT22;5396;50.950;6.988;2022-08-21T00:06:04;17.90;99.90
10692;DHT22;5396;50.950;6.988;2022-08-21T00:08:30;17.90;99.90
10692;DHT22;5396;50.950;6.988;2022-08-21T00:10:56;17.80;99.90
10692;DHT22;5396;50.950;6.988;2022-08-21T00:13:21;17.80;99.90
10692;DHT22;5396;50.950;6.988;2022-08-21T00:15:48;17.80;99.90
10692;DHT22;5396;50.950;6.988;2022-08-21T00:18:14;17.70;99.90
10692;DHT22;5396;50.950;6.988;2022-08-21T00:20:42;17.70;99.90
10692;DHT22;5396;50.950;6.988;2022-08-21T00:23:08;17.60;99.90
10692;DHT22;5396;50.950;6.988;2022-08-21T00:25:34;17.60;99.90
10692;DHT22;5396;50.950;6.988;2022-08-21T00:28:00;17.50;99.90
10692;DHT22;5396;50.950;6.988;2022-08-21T00:30:28;17.50;99.90
10692;DHT22;5396;50.950;6.988;2022-08-21T00:32:55;17.50;99.90
10692;DHT22;5396;50.950;6.988;2022-08-21T00:35:25;17.50;99.90
10692;DHT22;5396;50.950;6.988;2022-08-21T00:37:51;17.40;99.90
10692;DHT22;5396;50.950;6.988;2022-08-21T00:40:20;17.40;99.90
10692;DHT22;5396;50.950;6.988;2022-08-21T00:42:46;17.40;99.90
10692;DHT22;5396;50.950;6.988;2022-08-21T00:45:12;17.30;99.90
10692;DHT22;5396;50.950;6.988;2022-08-21T00:47:38;17.20;99.90
10692;DHT22;5396;50.950;6.988;2022-08-21T00:50:06;17.20;99.90
10692;DHT22;5396;50.950;6.988;2022-08-21T00:52:34;17.10;99.90
10692;DHT22;5396;50.950;6.988;2022-08-21T00:55:02;17.10;99.90
10692;DHT22;5396;50.950;6.988;2022-08-21T00:57:42;17.00;99.90
10692;DHT22;5396;50.950;6.988;2022-08-21T01:00:15;16.90;99.90
10692;DHT22;5396;50.950;6.988;2022-08-21T01:02:41;16.90;99.90
10692;DHT22;5396;50.950;6.988;2022-08-21T01:05:08;16.80;99.90
10692;DHT22;5396;50.950;6.988;2022-08-21T01:07:34;16.80;99.90
10692;DHT22;5396;50.950;6.988;2022-08-21T01:10:01;16.80;99.90
10692;DHT22;5396;50.950;6.988;2022-08-21T01:12:26;16.80;99.90
10692;DHT22;5396;50.950;6.988;2022-08-21T01:14:53;16.70;99.90
10692;DHT22;5396;50.950;6.988;2022-08-21T01:17:21;16.70;99.90
10692;DHT22;5396;50.950;6.988;2022-08-21T01:19:46;16.70;99.90
10692;DHT22;5396;50.950;6.988;2022-08-21T01:22:12;16.70;99.90
10692;DHT22;5396;50.950;6.988;2022-08-21T01:24:38;16.70;99.90
10692;DHT22;5396;50.950;6.988;2022-08-21T01:27:04;16.70;99.90
10692;DHT22;5396;50.950;6.988;2022-08-21T01:32:13;16.70;99.90
10692;DHT22;5396;50.950;6.988;2022-08-21T01:34:42;16.60;99.90
10692;DHT22;5396;50.950;6.988;2022-08-21T01:37:08;16.60;99.90
10692;DHT22;5396;50.950;6.988;2022-08-21T01:39:35;16.60;99.90
10692;DHT22;5396;50.950;6.988;2022-08-21T01:42:01;16.60;99.90
10692;DHT22;5396;50.950;6.988;2022-08-21T01:44:27;16.60;99.90
10692;DHT22;5396;50.950;6.988;2022-08-21T01:46:53;16.60;99.90
10692;DHT22;5396;50.950;6.988;2022-08-21T01:49:19;16.50;99.90
10692;DHT22;5396;50.950;6.988;2022-08-21T01:51:45;16.60;99.90
10692;DHT22;5396;50.950;6.988;2022-08-21T01:54:11;16.50;99.90
10692;DHT22;5396;50.950;6.988;2022-08-21T01:56:39;16.50;99.90
10692;DHT22;5396;50.950;6.988;2022-08-21T01:59:06;16.50;99.90
10692;DHT22;5396;50.950;6.988;2022-08-21T02:01:31;16.50;99.90
10692;DHT22;5396;50.950;6.988;2022-08-21T02:03:57;16.50;99.90
10692;DHT22;5396;50.950;6.988;2022-08-21T02:06:25;16.50;99.90
10692;DHT22;5396;50.950;6.988;2022-08-21T02:08:51;16.50;99.90
10692;DHT22;5396;50.950;6.988;2022-08-21T02:11:17;16.50;99.90
10692;DHT22;5396;50.950;6.988;2022-08-21T02:13:42;16.50;99.90
10692;DHT22;5396;50.950;6.988;2022-08-21T02:16:08;16.50;99.90
10692;DHT22;5396;50.950;6.988;2022-08-21T02:18:34;16.40;99.90
10692;DHT22;5396;50.950;6.988;2022-08-21T02:21:00;16.40;99.90
10692;DHT22;5396;50.950;6.988;2022-08-21T02:23:26;16.30;99.90
10692;DHT22;5396;50.950;6.988;2022-08-21T02:25:51;16.30;99.90
10692;DHT22;5396;50.950;6.988;2022-08-21T02:28:17;16.20;99.90
10692;DHT22;5396;50.950;6.988;2022-08-21T02:30:46;16.20;99.90
10692;DHT22;5396;50.950;6.988;2022-08-21T02:33:12;16.20;99.90
10692;DHT22;5396;50.950;6.988;2022-08-21T02:35:39;16.10;99.90
10692;DHT22;5396;50.950;6.988;2022-08-21T02:38:09;16.00;99.90
10692;DHT22;5396;50.950;6.988;2022-08-21T02:40:38;16.00;99.90
10692;DHT22;5396;50.950;6.988;2022-08-21T02:43:06;16.00;99.90
10692;DHT22;5396;50.950;6.988;2022-08-21T02:45:33;15.90;99.90
10692;DHT22;5396;50.950;6.988;2022-08-21T02:48:04;15.80;99.90
10692;DHT22;5396;50.950;6.988;2022-08-21T02:50:39;15.80;99.90
10692;DHT22;5396;50.950;6.988;2022-08-21T02:53:07;15.70;99.90
10692;DHT22;5396;50.950;6.988;2022-08-21T02:55:33;15.60;99.90
10692;DHT22;5396;50.950;6.988;2022-08-21T02:58:00;15.60;99.90
10692;DHT22;5396;50.950;6.988;2022-08-21T03:00:28;15.60;99.90
10692;DHT22;5396;50.950;6.988;2022-08-21T03:02:56;15.50;99.90
10692;DHT22;5396;50.950;6.988;2022-08-21T03:05:22;15.50;99.90
10692;DHT22;5396;50.950;6.988;2022-08-21T03:07:48;15.50;99.90
10692;DHT22;5396;50.950;6.988;2022-08-21T03:10:15;15.40;99.90
10692;DHT22;5396;50.950;6.988;2022-08-21T03:12:41;15.40;99.90
10692;DHT22;5396;50.950;6.988;2022-08-21T03:15:10;15.40;99.90
10692;DHT22;5396;50.950;6.988;2022-08-21T03:17:36;15.30;99.90
10692;DHT22;5396;50.950;6.988;2022-08-21T03:20:06;15.30;99.90
10692;DHT22;5396;50.950;6.988;2022-08-21T03:22:32;15.30;99.90
10692;DHT22;5396;50.950;6.988;2022-08-21T03:24:58;15.30;99.90
10692;DHT22;5396;50.950;6.988;2022-08-21T03:27:25;15.30;99.90
10692;DHT22;5396;50.950;6.988;2022-08-21T03:29:52;15.30;99.90
10692;DHT22;5396;50.950;6.988;2022-08-21T03:32:18;15.30;99.90
10692;DHT22;5396;50.950;6.988;2022-08-21T03:34:45;15.30;99.90
10692;DHT22;5396;50.950;6.988;2022-08-21T03:37:11;15.40;99.90
10692;DHT22;5396;50.950;6.988;2022-08-21T03:39:38;15.40;99.90
10692;DHT22;5396;50.950;6.988;2022-08-21T03:42:03;15.40;99.90
10692;DHT22;5396;50.950;6.988;2022-08-21T03:44:30;15.40;99.90
10692;DHT22;5396;50.950;6.988;2022-08-21T03:46:57;15.40;99.90
10692;DHT22;5396;50.950;6.988;2022-08-21T03:49:23;15.30;99.90
10692;DHT22;5396;50.950;6.988;2022-08-21T03:51:49;15.30;99.90
10692;DHT22;5396;50.950;6.988;2022-08-21T03:54:15;15.30;99.90
10692;DHT22;5396;50.950;6.988;2022-08-21T03:56:40;15.30;99.90
10692;DHT22;5396;50.950;6.988;2022-08-21T03:59:06;15.20;99.90
10692;DHT22;5396;50.950;6.988;2022-08-21T04:01:32;15.20;99.90
10692;DHT22;5396;50.950;6.988;2022-08-21T04:03:58;15.20;99.90
10692;DHT22;5396;50.950;6.988;2022-08-21T04:06:24;15.20;99.90
10692;DHT22;5396;50.950;6.988;2022-08-21T04:08:52;15.20;99.90
10692;DHT22;5396;50.950;6.988;2022-08-21T04:11:18;15.20;99.90
10692;DHT22;5396;50.950;6.988;2022-08-21T04:13:45;15.20;99.90
10692;DHT22;5396;50.950;6.988;2022-08-21T04:16:11;15.20;99.90
10692;DHT22;5396;50.950;6.988;2022-08-21T04:18:37;15.10;99.90
10692;DHT22;5396;50.950;6.988;2022-08-21T04:21:03;15.10;99.90
10692;DHT22;5396;50.950;6.988;2022-08-21T04:23:29;15.10;99.90
10692;DHT22;5396;50.950;6.988;2022-08-21T04:25:56;15.10;99.90
10692;DHT22;5396;50.950;6.988;2022-08-21T04:28:25;15.10;99.90
10692;DHT22;5396;50.950;6.988;2022-08-21T04:30:52;15.10;99.90
10692;DHT22;5396;50.950;6.988;2022-08-21T04:33:19;15.10;99.90
10692;DHT22;5396;50.950;6.988;2022-08-21T04:35:44;15.20;99.90
10692;DHT22;5396;50.950;6.988;2022-08-21T04:38:10;15.20;99.90
10692;DHT22;5396;50.950;6.988;2022-08-21T04:40:36;15.10;99.90
10692;DHT22;5396;50.950;6.988;2022-08-21T04:43:04;15.20;99.90
10692;DHT22;5396;50.950;6.988;2022-08-21T04:45:35;15.20;99.90
10692;DHT22;5396;50.950;6.988;2022-08-21T04:48:05;15.10;99.90
10692;DHT22;5396;50.950;6.988;2022-08-21T04:53:14;15.10;99.90
10692;DHT22;5396;50.950;6.988;2022-08-21T04:55:42;15.10;99.90
10692;DHT22;5396;50.950;6.988;2022-08-21T04:58:09;15.10;99.90
10692;DHT22;5396;50.950;6.988;2022-08-21T05:00:36;15.20;99.90
10692;DHT22;5396;50.950;6.988;2022-08-21T05:03:03;15.20;99.90
10692;DHT22;5396;50.950;6.988;2022-08-21T05:05:30;15.20;99.90
10692;DHT22;5396;50.950;6.988;2022-08-21T05:07:57;15.20;99.90
10692;DHT22;5396;50.950;6.988;2022-08-21T05:10:24;15.20;99.90
10692;DHT22;5396;50.950;6.988;2022-08-21T05:12:50;15.20;99.90
10692;DHT22;5396;50.950;6.988;2022-08-21T05:15:16;15.20;99.90
10692;DHT22;5396;50.950;6.988;2022-08-21T05:17:42;15.20;99.90
10692;DHT22;5396;50.950;6.988;2022-08-21T05:20:12;15.30;99.90
10692;DHT22;5396;50.950;6.988;2022-08-21T05:22:40;15.30;99.90
10692;DHT22;5396;50.950;6.988;2022-08-21T05:25:07;15.30;99.90
10692;DHT22;5396;50.950;6.988;2022-08-21T05:27:34;15.30;99.90
10692;DHT22;5396;50.950;6.988;2022-08-21T05:30:00;15.30;99.90
10692;DHT22;5396;50.950;6.988;2022-08-21T05:32:26;15.30;99.90
10692;DHT22;5396;50.950;6.988;2022-08-21T05:34:53;15.30;99.90
10692;DHT22;5396;50.950;6.988;2022-08-21T05:37:19;15.30;99.90
10692;DHT22;5396;50.950;6.988;2022-08-21T05:39:44;15.40;99.90
10692;DHT22;5396;50.950;6.988;2022-08-21T05:42:10;15.40;99.90
10692;DHT22;5396;50.950;6.988;2022-08-21T05:44:35;15.50;99.90
10692;DHT22;5396;50.950;6.988;2022-08-21T05:47:03;15.50;99.90
10692;DHT22;5396;50.950;6.988;2022-08-21T05:49:29;15.50;99.90
10692;DHT22;5396;50.950;6.988;2022-08-21T05:51:55;15.50;99.90
10692;DHT22;5396;50.950;6.988;2022-08-21T05:54:20;15.60;99.90
10692;DHT22;5396;50.950;6.988;2022-08-21T05:56:46;15.60;99.90
10692;DHT22;5396;50.950;6.988;2022-08-21T05:59:11;15.70;99.90
10692;DHT22;5396;50.950;6.988;2022-08-21T06:01:38;15.70;99.90
10692;DHT22;5396;50.950;6.988;2022-08-21T06:04:04;15.80;99.90
10692;DHT22;5396;50.950;6.988;2022-08-21T06:06:30;15.80;99.90
10692;DHT22;5396;50.950;6.988;2022-08-21T06:08:56;15.80;99.90
10692;DHT22;5396;50.950;6.988;2022-08-21T06:11:21;15.80;99.90
10692;DHT22;5396;50.950;6.988;2022-08-21T06:13:47;15.90;99.90
10692;DHT22;5396;50.950;6.988;2022-08-21T06:16:15;15.90;99.90
10692;DHT22;5396;50.950;6.988;2022-08-21T06:18:41;15.90;99.90
10692;DHT22;5396;50.950;6.988;2022-08-21T06:21:07;16.00;99.90
10692;DHT22;5396;50.950;6.988;2022-08-21T06:23:34;16.00;99.90
10692;DHT22;5396;50.950;6.988;2022-08-21T06:26:01;16.10;99.90
10692;DHT22;5396;50.950;6.988;2022-08-21T06:28:27;16.10;99.90
10692;DHT22;5396;50.950;6.988;2022-08-21T06:30:53;16.20;99.90
10692;DHT22;5396;50.950;6.988;2022-08-21T06:33:19;16.30;99.90
10692;DHT22;5396;50.950;6.988;2022-08-21T06:35:45;16.40;99.90
10692;DHT22;5396;50.950;6.988;2022-08-21T06:38:10;16.50;99.90
10692;DHT22;5396;50.950;6.988;2022-08-21T06:40:36;16.60;99.90
10692;DHT22;5396;50.950;6.988;2022-08-21T06:43:08;16.60;99.90
10692;DHT22;5396;50.950;6.988;2022-08-21T06:45:34;16.70;99.90
10692;DHT22;5396;50.950;6.988;2022-08-21T06:47:59;16.80;99.90
10692;DHT22;5396;50.950;6.988;2022-08-21T06:50:25;16.80;99.90
10692;DHT22;5396;50.950;6.988;2022-08-21T06:53:04;16.90;99.90
10692;DHT22;5396;50.950;6.988;2022-08-21T06:55:30;17.00;99.90
10692;DHT22;5396;50.950;6.988;2022-08-21T06:57:56;17.10;99.90
10692;DHT22;5396;50.950;6.988;2022-08-21T07:00:21;17.20;99.90
10692;DHT22;5396;50.950;6.988;2022-08-21T07:02:47;17.20;99.90
10692;DHT22;5396;50.950;6.988;2022-08-21T07:05:14;17.30;99.90
10692;DHT22;5396;50.950;6.988;2022-08-21T07:07:39;17.40;99.90
10692;DHT22;5396;50.950;6.988;2022-08-21T07:10:05;17.50;99.90
10692;DHT22;5396;50.950;6.988;2022-08-21T07:12:31;17.60;99.90
10692;DHT22;5396;50.950;6.988;2022-08-21T07:14:56;17.70;99.90
10692;DHT22;5396;50.950;6.988;2022-08-21T07:17:22;17.80;99.90
10692;DHT22;5396;50.950;6.988;2022-08-21T07:19:47;17.90;99.90
10692;DHT22;5396;50.950;6.988;2022-08-21T07:22:15;18.00;99.90
10692;DHT22;5396;50.950;6.988;2022-08-21T07:24:41;18.10;99.90
10692;DHT22;5396;50.950;6.988;2022-08-21T07:27:07;18.10;99.90
10692;DHT22;5396;50.950;6.988;2022-08-21T07:29:33;18.20;99.90
10692;DHT22;5396;50.950;6.988;2022-08-21T07:31:58;18.30;99.90
10692;DHT22;5396;50.950;6.988;2022-08-21T07:34:24;18.40;99.90
10692;DHT22;5396;50.950;6.988;2022-08-21T07:36:49;18.50;99.90
10692;DHT22;5396;50.950;6.988;2022-08-21T07:39:15;18.70;99.90
10692;DHT22;5396;50.950;6.988;2022-08-21T07:41:41;18.70;99.90
10692;DHT22;5396;50.950;6.988;2022-08-21T07:44:06;18.80;99.90
10692;DHT22;5396;50.950;6.988;2022-08-21T07:46:32;18.90;99.90
10692;DHT22;5396;50.950;6.988;2022-08-21T07:48:58;19.10;99.90
10692;DHT22;5396;50.950;6.988;2022-08-21T07:51:26;19.20;99.90
10692;DHT22;5396;50.950;6.988;2022-08-21T07:53:55;19.20;99.90
10692;DHT22;5396;50.950;6.988;2022-08-21T07:56:21;19.20;99.90
10692;DHT22;5396;50.950;6.988;2022-08-21T07:58:47;19.30;99.90
10692;DHT22;5396;50.950;6.988;2022-08-21T08:01:13;19.40;99.90
10692;DHT22;5396;50.950;6.988;2022-08-21T08:03:39;19.40;99.90
10692;DHT22;5396;50.950;6.988;2022-08-21T08:06:06;19.50;99.90
10692;DHT22;5396;50.950;6.988;2022-08-21T08:08:34;19.50;99.90
10692;DHT22;5396;50.950;6.988;2022-08-21T08:10:59;19.50;99.90
10692;DHT22;5396;50.950;6.988;2022-08-21T08:13:27;19.50;99.90
10692;DHT22;5396;50.950;6.988;2022-08-21T08:15:52;19.50;99.90
10692;DHT22;5396;50.950;6.988;2022-08-21T08:18:18;19.60;99.90
10692;DHT22;5396;50.950;6.988;2022-08-21T08:20:44;19.70;99.90
10692;DHT22;5396;50.950;6.988;2022-08-21T08:23:12;19.70;99.90
10692;DHT22;5396;50.950;6.988;2022-08-21T08:25:38;19.80;99.90
10692;DHT22;5396;50.950;6.988;2022-08-21T08:28:05;19.90;99.90
10692;DHT22;5396;50.950;6.988;2022-08-21T08:30:31;20.00;99.90
10692;DHT22;5396;50.950;6.988;2022-08-21T08:32:57;20.10;99.90
10692;DHT22;5396;50.950;6.988;2022-08-21T08:35:25;20.10;99.90
10692;DHT22;5396;50.950;6.988;2022-08-21T08:37:51;20.10;99.90
10692;DHT22;5396;50.950;6.988;2022-08-21T08:42:54;20.30;99.90
10692;DHT22;5396;50.950;6.988;2022-08-21T08:45:21;20.40;99.90
10692;DHT22;5396;50.950;6.988;2022-08-21T08:48:01;20.50;99.90
10692;DHT22;5396;50.950;6.988;2022-08-21T08:50:49;20.50;99.90
10692;DHT22;5396;50.950;6.988;2022-08-21T08:53:21;20.70;99.90
10692;DHT22;5396;50.950;6.988;2022-08-21T08:55:48;20.70;99.90
10692;DHT22;5396;50.950;6.988;2022-08-21T08:58:28;20.80;99.90
10692;DHT22;5396;50.950;6.988;2022-08-21T09:00:56;20.90;99.90
10692;DHT22;5396;50.950;6.988;2022-08-21T09:03:26;21.00;99.90
10692;DHT22;5396;50.950;6.988;2022-08-21T09:06:11;21.10;99.90
10692;DHT22;5396;50.950;6.988;2022-08-21T09:08:46;21.20;99.90
10692;DHT22;5396;50.950;6.988;2022-08-21T09:11:34;21.40;99.90
10692;DHT22;5396;50.950;6.988;2022-08-21T09:19:48;21.50;99.90
10692;DHT22;5396;50.950;6.988;2022-08-21T09:25:20;21.50;99.90
10692;DHT22;5396;50.950;6.988;2022-08-21T09:27:46;21.50;99.90
10692;DHT22;5396;50.950;6.988;2022-08-21T09:30:12;21.50;99.90
10692;DHT22;5396;50.950;6.988;2022-08-21T09:32:39;21.50;99.90
10692;DHT22;5396;50.950;6.988;2022-08-21T09:35:09;21.60;99.90
10692;DHT22;5396;50.950;6.988;2022-08-21T09:45:32;21.90;99.90
10692;DHT22;5396;50.950;6.988;2022-08-21T09:48:18;22.10;99.90
10692;DHT22;5396;50.950;6.988;2022-08-21T09:50:45;22.20;99.90
10692;DHT22;5396;50.950;6.988;2022-08-21T09:53:19;22.10;99.90
10692;DHT22;5396;50.950;6.988;2022-08-21T09:55:53;22.10;99.90
10692;DHT22;5396;50.950;6.988;2022-08-21T09:58:39;22.20;99.90
10692;DHT22;5396;50.950;6.988;2022-08-21T10:01:13;22.20;99.90
10692;DHT22;5396;50.950;6.988;2022-08-21T10:03:39;22.40;99.90
10692;DHT22;5396;50.950;6.988;2022-08-21T10:06:07;22.60;99.90
10692;DHT22;5396;50.950;6.988;2022-08-21T10:08:38;22.60;99.90
10692;DHT22;5396;50.950;6.988;2022-08-21T10:40:37;23.10;99.90
10692;DHT22;5396;50.950;6.988;2022-08-21T10:43:23;23.20;99.90
10692;DHT22;5396;50.950;6.988;2022-08-21T10:50:57;23.60;99.90
10692;DHT22;5396;50.950;6.988;2022-08-21T10:58:47;23.80;99.90
10692;DHT22;5396;50.950;6.988;2022-08-21T11:07:25;23.90;99.90
10692;DHT22;5396;50.950;6.988;2022-08-21T11:09:54;24.00;99.90
10692;DHT22;5396;50.950;6.988;2022-08-21T11:12:29;24.10;99.90
10692;DHT22;5396;50.950;6.988;2022-08-21T11:15:11;24.10;99.90
10692;DHT22;5396;50.950;6.988;2022-08-21T11:17:50;23.80;99.90
10692;DHT22;5396;50.950;6.988;2022-08-21T11:20:24;23.90;99.90
10692;DHT22;5396;50.950;6.988;2022-08-21T11:23:07;24.10;99.90
10692;DHT22;5396;50.950;6.988;2022-08-21T11:25:46;24.20;99.90
10692;DHT22;5396;50.950;6.988;2022-08-21T11:28:26;24.20;99.90
10692;DHT22;5396;50.950;6.988;2022-08-21T11:31:02;24.30;99.90
10692;DHT22;5396;50.950;6.988;2022-08-21T11:36:21;24.50;99.90
10692;DHT22;5396;50.950;6.988;2022-08-21T11:48:48;25.00;99.90
10692;DHT22;5396;50.950;6.988;2022-08-21T11:50:41;24.80;99.90
10692;DHT22;5396;50.950;6.988;2022-08-21T11:53:22;24.80;99.90
10692;DHT22;5396;50.950;6.988;2022-08-21T11:56:04;24.90;99.90
10692;DHT22;5396;50.950;6.988;2022-08-21T11:58:39;24.90;99.90
10692;DHT22;5396;50.950;6.988;2022-08-21T12:01:16;25.00;99.90
10692;DHT22;5396;50.950;6.988;2022-08-21T12:04:01;25.20;99.90
10692;DHT22;5396;50.950;6.988;2022-08-21T12:06:40;25.20;99.90
10692;DHT22;5396;50.950;6.988;2022-08-21T12:25:41;25.20;99.90
10692;DHT22;5396;50.950;6.988;2022-08-21T12:28:10;25.20;99.90
10692;DHT22;5396;50.950;6.988;2022-08-21T12:30:42;25.20;99.90
10692;DHT22;5396;50.950;6.988;2022-08-21T12:33:33;25.40;99.90
10692;DHT22;5396;50.950;6.988;2022-08-21T12:36:09;25.50;99.90
10692;DHT22;5396;50.950;6.988;2022-08-21T12:41:22;25.60;99.90
10692;DHT22;5396;50.950;6.988;2022-08-21T12:44:12;25.70;99.90
10692;DHT22;5396;50.950;6.988;2022-08-21T12:46:51;25.50;99.90
10692;DHT22;5396;50.950;6.988;2022-08-21T12:49:43;25.30;99.90
10692;DHT22;5396;50.950;6.988;2022-08-21T12:54:47;25.30;99.90
10692;DHT22;5396;50.950;6.988;2022-08-21T12:57:25;25.90;99.90
10692;DHT22;5396;50.950;6.988;2022-08-21T13:00:00;26.80;99.90
10692;DHT22;5396;50.950;6.988;2022-08-21T13:02:31;27.80;99.90
10692;DHT22;5396;50.950;6.988;2022-08-21T13:04:58;28.80;99.90
10692;DHT22;5396;50.950;6.988;2022-08-21T13:07:30;28.70;99.90
10692;DHT22;5396;50.950;6.988;2022-08-21T13:10:00;29.00;99.90
10692;DHT22;5396;50.950;6.988;2022-08-21T13:12:28;29.60;99.90
10692;DHT22;5396;50.950;6.988;2022-08-21T13:14:57;29.80;99.90
10692;DHT22;5396;50.950;6.988;2022-08-21T13:17:25;30.20;99.90
10692;DHT22;5396;50.950;6.988;2022-08-21T13:20:05;31.00;99.90
10692;DHT22;5396;50.950;6.988;2022-08-21T13:22:31;31.60;99.90
10692;DHT22;5396;50.950;6.988;2022-08-21T13:24:57;30.80;99.90
10692;DHT22;5396;50.950;6.988;2022-08-21T13:27:28;31.20;99.90
10692;DHT22;5396;50.950;6.988;2022-08-21T13:30:28;32.60;99.90
10692;DHT22;5396;50.950;6.988;2022-08-21T13:32:58;34.10;99.90
10692;DHT22;5396;50.950;6.988;2022-08-21T13:35:36;35.50;99.90
10692;DHT22;5396;50.950;6.988;2022-08-21T13:38:11;35.00;99.90
10692;DHT22;5396;50.950;6.988;2022-08-21T13:41:08;34.40;99.90
10692;DHT22;5396;50.950;6.988;2022-08-21T13:43:37;33.90;99.90
10692;DHT22;5396;50.950;6.988;2022-08-21T13:46:09;34.70;99.90
10692;DHT22;5396;50.950;6.988;2022-08-21T13:48:36;34.10;99.90
10692;DHT22;5396;50.950;6.988;2022-08-21T13:51:03;34.80;99.90
10692;DHT22;5396;50.950;6.988;2022-08-21T13:55:57;34.10;99.90
10692;DHT22;5396;50.950;6.988;2022-08-21T14:00:55;34.80;99.90
10692;DHT22;5396;50.950;6.988;2022-08-21T14:03:44;33.40;99.90
10692;DHT22;5396;50.950;6.988;2022-08-21T14:06:23;32.40;99.90
10692;DHT22;5396;50.950;6.988;2022-08-21T14:08:54;32.70;99.90
10692;DHT22;5396;50.950;6.988;2022-08-21T14:11:21;33.90;99.90
10692;DHT22;5396;50.950;6.988;2022-08-21T14:16:46;33.90;99.90
10692;DHT22;5396;50.950;6.988;2022-08-21T14:19:25;34.20;99.90
10692;DHT22;5396;50.950;6.988;2022-08-21T14:21:58;34.30;99.90
10692;DHT22;5396;50.950;6.988;2022-08-21T14:24:29;34.30;99.90
10692;DHT22;5396;50.950;6.988;2022-08-21T14:27:07;33.30;99.90
10692;DHT22;5396;50.950;6.988;2022-08-21T14:29:38;32.40;99.90
10692;DHT22;5396;50.950;6.988;2022-08-21T14:32:15;32.80;99.90
10692;DHT22;5396;50.950;6.988;2022-08-21T14:34:41;32.30;99.90
10692;DHT22;5396;50.950;6.988;2022-08-21T14:37:07;31.60;99.90
10692;DHT22;5396;50.950;6.988;2022-08-21T14:39:33;30.80;99.90
10692;DHT22;5396;50.950;6.988;2022-08-21T14:41:59;29.70;99.90
10692;DHT22;5396;50.950;6.988;2022-08-21T14:44:26;29.10;99.90
10692;DHT22;5396;50.950;6.988;2022-08-21T14:46:52;28.70;99.90
10692;DHT22;5396;50.950;6.988;2022-08-21T14:49:18;28.30;99.90
10692;DHT22;5396;50.950;6.988;2022-08-21T14:51:44;27.80;99.90
10692;DHT22;5396;50.950;6.988;2022-08-21T14:54:14;27.30;99.90
10692;DHT22;5396;50.950;6.988;2022-08-21T14:56:39;26.70;99.90
10692;DHT22;5396;50.950;6.988;2022-08-21T14:59:07;26.20;99.90
10692;DHT22;5396;50.950;6.988;2022-08-21T15:01:35;26.00;99.90
10692;DHT22;5396;50.950;6.988;2022-08-21T15:04:01;25.90;99.90
10692;DHT22;5396;50.950;6.988;2022-08-21T15:06:27;25.90;99.90
10692;DHT22;5396;50.950;6.988;2022-08-21T15:08:53;25.90;99.90
10692;DHT22;5396;50.950;6.988;2022-08-21T15:11:20;25.90;99.90
10692;DHT22;5396;50.950;6.988;2022-08-21T15:13:47;25.80;99.90
10692;DHT22;5396;50.950;6.988;2022-08-21T15:16:15;25.70;99.90
10692;DHT22;5396;50.950;6.988;2022-08-21T15:18:41;25.60;99.90
10692;DHT22;5396;50.950;6.988;2022-08-21T15:21:07;25.40;99.90
10692;DHT22;5396;50.950;6.988;2022-08-21T15:23:33;25.20;99.90
10692;DHT22;5396;50.950;6.988;2022-08-21T15:26:00;25.10;99.90
10692;DHT22;5396;50.950;6.988;2022-08-21T15:28:25;25.10;99.90
10692;DHT22;5396;50.950;6.988;2022-08-21T15:30:51;25.10;99.90
10692;DHT22;5396;50.950;6.988;2022-08-21T15:33:18;25.10;99.90
10692;DHT22;5396;50.950;6.988;2022-08-21T15:35:44;25.10;99.90
10692;DHT22;5396;50.950;6.988;2022-08-21T15:38:12;25.00;99.90
10692;DHT22;5396;50.950;6.988;2022-08-21T15:40:39;25.00;99.90
10692;DHT22;5396;50.950;6.988;2022-08-21T15:43:18;24.90;99.90
10692;DHT22;5396;50.950;6.988;2022-08-21T15:45:45;24.90;99.90
10692;DHT22;5396;50.950;6.988;2022-08-21T15:48:11;24.90;99.90
10692;DHT22;5396;50.950;6.988;2022-08-21T15:50:36;24.90;99.90
10692;DHT22;5396;50.950;6.988;2022-08-21T15:53:02;24.90;99.90
10692;DHT22;5396;50.950;6.988;2022-08-21T15:55:28;25.00;99.90
10692;DHT22;5396;50.950;6.988;2022-08-21T15:57:54;25.10;99.90
10692;DHT22;5396;50.950;6.988;2022-08-21T16:00:23;25.20;99.90
10692;DHT22;5396;50.950;6.988;2022-08-21T16:02:52;25.20;99.90
10692;DHT22;5396;50.950;6.988;2022-08-21T16:05:19;25.20;99.90
10692;DHT22;5396;50.950;6.988;2022-08-21T16:07:46;25.20;99.90
10692;DHT22;5396;50.950;6.988;2022-08-21T16:10:14;25.10;99.90
10692;DHT22;5396;50.950;6.988;2022-08-21T16:12:44;25.10;99.90
10692;DHT22;5396;50.950;6.988;2022-08-21T16:15:13;25.10;99.90
10692;DHT22;5396;50.950;6.988;2022-08-21T16:17:41;25.20;99.90
10692;DHT22;5396;50.950;6.988;2022-08-21T16:20:11;25.30;99.90
10692;DHT22;5396;50.950;6.988;2022-08-21T16:22:38;25.30;99.90
10692;DHT22;5396;50.950;6.988;2022-08-21T16:25:05;25.40;99.90
10692;DHT22;5396;50.950;6.988;2022-08-21T16:27:32;25.50;99.90
10692;DHT22;5396;50.950;6.988;2022-08-21T16:29:59;25.60;99.90
10692;DHT22;5396;50.950;6.988;2022-08-21T16:32:25;25.80;99.90
10692;DHT22;5396;50.950;6.988;2022-08-21T16:34:51;26.00;99.90
10692;DHT22;5396;50.950;6.988;2022-08-21T16:37:17;26.20;99.90
10692;DHT22;5396;50.950;6.988;2022-08-21T16:39:43;26.20;99.90
10692;DHT22;5396;50.950;6.988;2022-08-21T16:42:14;26.20;99.90
10692;DHT22;5396;50.950;6.988;2022-08-21T16:44:42;26.40;99.90
10692;DHT22;5396;50.950;6.988;2022-08-21T16:47:07;26.50;99.90
10692;DHT22;5396;50.950;6.988;2022-08-21T16:49:33;26.50;99.90
10692;DHT22;5396;50.950;6.988;2022-08-21T16:51:59;26.40;99.90
10692;DHT22;5396;50.950;6.988;2022-08-21T16:54:25;26.30;99.90
10692;DHT22;5396;50.950;6.988;2022-08-21T16:56:50;26.20;99.90
10692;DHT22;5396;50.950;6.988;2022-08-21T16:59:16;25.90;99.90
10692;DHT22;5396;50.950;6.988;2022-08-21T17:01:42;25.60;99.90
10692;DHT22;5396;50.950;6.988;2022-08-21T17:04:07;25.60;99.90
10692;DHT22;5396;50.950;6.988;2022-08-21T17:06:33;25.60;99.90
10692;DHT22;5396;50.950;6.988;2022-08-21T17:08:59;25.60;99.90
10692;DHT22;5396;50.950;6.988;2022-08-21T17:11:30;25.50;99.90
10692;DHT22;5396;50.950;6.988;2022-08-21T17:13:57;25.50;99.90
10692;DHT22;5396;50.950;6.988;2022-08-21T17:16:24;25.40;99.90
10692;DHT22;5396;50.950;6.988;2022-08-21T17:18:50;25.30;99.90
10692;DHT22;5396;50.950;6.988;2022-08-21T17:21:16;25.30;99.90
10692;DHT22;5396;50.950;6.988;2022-08-21T17:23:44;25.20;99.90
10692;DHT22;5396;50.950;6.988;2022-08-21T17:26:09;25.10;99.90
10692;DHT22;5396;50.950;6.988;2022-08-21T17:28:36;25.10;99.90
10692;DHT22;5396;50.950;6.988;2022-08-21T17:31:03;25.00;99.90
10692;DHT22;5396;50.950;6.988;2022-08-21T17:33:35;24.90;99.90
10692;DHT22;5396;50.950;6.988;2022-08-21T17:36:04;24.70;99.90
10692;DHT22;5396;50.950;6.988;2022-08-21T17:38:30;24.60;99.90
10692;DHT22;5396;50.950;6.988;2022-08-21T17:40:56;24.50;99.90
10692;DHT22;5396;50.950;6.988;2022-08-21T17:43:22;24.40;99.90
10692;DHT22;5396;50.950;6.988;2022-08-21T17:45:48;24.40;99.90